Time;durP1;ratioP1;P1;durP2;ratioP2;P2;SDS_P1;SDS_P2;PMS_P1;PMS_P2;Temp;Humidity;BMP_temperature;BMP_pressure;BME280_temperature;BME280_humidity;BME280_pressure;Samples;Min_cycle;Max_cycle;Signal;HPM_P1;HPM_P2
2021/07/11 00:00:25;;;;;;;9.50;5.70;;;16.20;99.90;;;;;;5070380;28;20044;-61
2021/07/11 00:02:51;;;;;;;9.38;5.97;;;16.20;99.90;;;;;;5073816;28;20035;-63
2021/07/11 00:05:19;;;;;;;9.50;6.05;;;16.10;99.90;;;;;;5075813;28;20032;-62
2021/07/11 00:07:45;;;;;;;7.70;5.65;;;16.10;99.90;;;;;;5080470;28;20159;-64
2021/07/11 00:10:13;;;;;;;11.55;6.00;;;16.10;99.90;;;;;;5077658;28;20123;-64
2021/07/11 00:12:39;;;;;;;9.88;6.50;;;16.00;99.90;;;;;;5085831;28;20028;-64
2021/07/11 00:15:07;;;;;;;13.88;5.43;;;16.00;99.90;;;;;;5076528;28;20078;-62
2021/07/11 00:17:34;;;;;;;8.52;5.85;;;16.00;99.90;;;;;;5088273;28;20032;-64
2021/07/11 00:19:59;;;;;;;10.98;6.43;;;16.00;99.90;;;;;;5080426;28;20483;-63
2021/07/11 00:22:25;;;;;;;9.57;6.47;;;16.00;99.90;;;;;;5081126;28;20024;-63
2021/07/11 00:24:52;;;;;;;8.93;6.13;;;16.00;99.90;;;;;;5074077;28;20032;-62
2021/07/11 00:27:17;;;;;;;10.82;6.65;;;16.00;99.90;;;;;;5074795;28;20024;-65
2021/07/11 00:29:43;;;;;;;8.20;6.00;;;16.00;99.90;;;;;;5080924;28;20070;-62
2021/07/11 00:32:09;;;;;;;11.60;6.78;;;16.00;99.90;;;;;;5082376;28;20111;-62
2021/07/11 00:34:35;;;;;;;16.10;6.70;;;16.00;99.90;;;;;;5074097;28;20428;-62
2021/07/11 00:37:01;;;;;;;9.00;6.10;;;16.00;99.90;;;;;;5074574;28;20478;-64
2021/07/11 00:39:27;;;;;;;10.20;6.35;;;16.00;99.90;;;;;;5074434;28;20075;-62
2021/07/11 00:41:52;;;;;;;9.63;5.88;;;16.00;99.90;;;;;;5074033;28;20032;-63
2021/07/11 00:44:18;;;;;;;8.25;6.47;;;16.00;99.90;;;;;;5083553;28;20025;-63
2021/07/11 00:46:45;;;;;;;12.00;6.90;;;16.00;99.90;;;;;;5072824;28;20241;-62
2021/07/11 00:49:11;;;;;;;10.80;6.35;;;16.00;99.90;;;;;;5088724;28;20107;-62
2021/07/11 00:51:36;;;;;;;11.68;6.07;;;16.10;99.90;;;;;;5075890;28;20025;-62
2021/07/11 00:54:03;;;;;;;10.40;6.63;;;16.00;99.90;;;;;;5077229;28;20406;-62
2021/07/11 00:56:29;;;;;;;8.95;6.35;;;16.00;99.90;;;;;;5073855;28;20110;-63
2021/07/11 00:58:56;;;;;;;8.98;5.90;;;16.10;99.90;;;;;;5072564;28;20060;-62
2021/07/11 01:01:56;;;;;;;10.60;6.28;;;16.10;99.90;;;;;;5073210;28;20036;-61
2021/07/11 01:04:28;;;;;;;10.85;6.90;;;16.10;99.90;;;;;;5084679;28;20025;-61
2021/07/11 01:06:57;;;;;;;12.13;6.75;;;16.10;99.90;;;;;;5077095;28;20082;-62
2021/07/11 01:09:36;;;;;;;8.73;6.30;;;16.10;99.90;;;;;;5078315;28;20657;-61
2021/07/11 01:12:14;;;;;;;9.93;6.63;;;16.10;99.90;;;;;;5085311;28;20031;-61
2021/07/11 01:14:42;;;;;;;11.00;7.43;;;16.10;99.90;;;;;;5075039;28;20059;-62
2021/07/11 01:17:10;;;;;;;10.98;7.00;;;16.10;99.90;;;;;;5071805;28;20459;-62
2021/07/11 01:20:00;;;;;;;14.20;7.05;;;16.10;99.90;;;;;;5078692;28;20036;-61
2021/07/11 01:22:34;;;;;;;13.80;7.05;;;16.20;99.90;;;;;;5073793;28;20031;-64
2021/07/11 01:25:08;;;;;;;11.07;7.47;;;16.10;99.90;;;;;;5078751;28;20029;-62
2021/07/11 01:27:35;;;;;;;11.30;7.50;;;16.10;99.90;;;;;;5073717;28;20035;-62
2021/07/11 01:30:04;;;;;;;10.27;7.55;;;16.10;99.90;;;;;;5076391;28;20074;-63
2021/07/11 01:32:30;;;;;;;12.32;7.72;;;16.00;99.90;;;;;;5073654;28;20032;-61
2021/07/11 01:35:00;;;;;;;11.60;7.60;;;16.00;99.90;;;;;;5072155;28;20041;-61
2021/07/11 01:37:29;;;;;;;11.95;7.95;;;16.00;99.90;;;;;;5076854;28;20035;-62
2021/07/11 01:39:55;;;;;;;15.73;8.38;;;16.10;99.90;;;;;;5073252;28;20037;-62
2021/07/11 01:42:21;;;;;;;12.52;8.30;;;16.00;99.90;;;;;;5072330;28;20025;-61
2021/07/11 01:44:48;;;;;;;10.75;7.38;;;16.00;99.90;;;;;;5073053;28;20048;-63
2021/07/11 01:47:14;;;;;;;12.20;8.00;;;16.00;99.90;;;;;;5072406;28;20033;-63
2021/07/11 01:49:41;;;;;;;11.50;7.93;;;16.10;99.90;;;;;;5080046;28;20028;-62
2021/07/11 01:52:08;;;;;;;10.93;8.20;;;16.10;99.90;;;;;;5079139;28;20496;-62
2021/07/11 01:54:34;;;;;;;12.32;8.68;;;16.10;99.90;;;;;;5091558;28;20036;-61
2021/07/11 01:57:00;;;;;;;12.57;7.93;;;16.10;99.90;;;;;;5076626;28;20032;-65
2021/07/11 01:59:26;;;;;;;14.15;8.85;;;16.10;99.90;;;;;;5073126;28;20025;-64
2021/07/11 02:01:51;;;;;;;16.42;8.82;;;16.10;99.90;;;;;;5088068;28;20028;-63
2021/07/11 02:04:17;;;;;;;12.48;8.80;;;16.10;99.90;;;;;;5076080;28;20104;-62
2021/07/11 02:06:43;;;;;;;12.93;8.85;;;16.10;99.90;;;;;;5072992;28;20117;-62
2021/07/11 02:09:09;;;;;;;13.95;9.13;;;16.10;99.90;;;;;;5082219;28;20470;-64
2021/07/11 02:11:39;;;;;;;14.32;9.20;;;16.10;99.90;;;;;;5084283;28;20016;-62
2021/07/11 02:14:16;;;;;;;12.23;8.77;;;16.10;99.90;;;;;;5086113;28;20033;-61
2021/07/11 02:16:52;;;;;;;14.68;8.70;;;16.10;99.90;;;;;;5075725;28;20442;-61
2021/07/11 02:19:18;;;;;;;15.85;8.80;;;16.20;99.90;;;;;;5076950;28;20024;-62
2021/07/11 02:21:45;;;;;;;13.82;8.90;;;16.10;99.90;;;;;;5075510;28;20111;-63
2021/07/11 02:24:12;;;;;;;14.75;8.65;;;16.10;99.90;;;;;;5090944;28;20080;-63
2021/07/11 02:26:38;;;;;;;17.63;8.15;;;16.10;99.90;;;;;;5072225;28;20463;-63
2021/07/11 02:29:08;;;;;;;14.05;8.93;;;16.10;99.90;;;;;;5072723;28;20056;-63
2021/07/11 02:31:40;;;;;;;15.30;8.38;;;16.10;99.90;;;;;;5085627;28;20051;-64
2021/07/11 02:34:10;;;;;;;14.45;8.70;;;16.10;99.90;;;;;;5071688;28;20028;-61
2021/07/11 02:36:39;;;;;;;18.92;8.73;;;16.10;99.90;;;;;;5081234;28;20024;-63
2021/07/11 02:39:07;;;;;;;19.27;9.02;;;16.10;99.90;;;;;;5075014;28;20036;-62
2021/07/11 02:41:35;;;;;;;12.95;8.85;;;16.10;99.90;;;;;;5074589;28;20048;-63
2021/07/11 02:44:04;;;;;;;13.63;8.48;;;16.10;99.90;;;;;;5074867;28;20493;-65
2021/07/11 02:46:43;;;;;;;14.73;8.85;;;16.10;99.90;;;;;;5071516;28;20508;-63
2021/07/11 02:49:12;;;;;;;16.00;9.18;;;16.10;99.90;;;;;;5072388;28;20108;-63
2021/07/11 02:51:44;;;;;;;16.75;9.35;;;16.10;99.90;;;;;;5071455;28;20027;-63
2021/07/11 02:54:16;;;;;;;16.77;9.23;;;16.10;99.90;;;;;;5071995;28;20039;-62
2021/07/11 02:56:43;;;;;;;16.67;9.88;;;16.10;99.90;;;;;;5070105;28;20504;-62
2021/07/11 02:59:10;;;;;;;14.23;9.02;;;16.20;99.90;;;;;;5074560;28;20032;-62
2021/07/11 03:01:37;;;;;;;14.73;9.38;;;16.10;99.90;;;;;;5070937;28;20043;-62
2021/07/11 03:04:04;;;;;;;18.50;9.27;;;16.20;99.90;;;;;;5074577;28;20048;-63
2021/07/11 03:06:34;;;;;;;16.33;9.60;;;16.20;99.90;;;;;;5073460;28;20024;-64
2021/07/11 03:09:03;;;;;;;18.27;10.32;;;16.20;99.90;;;;;;5071190;28;20052;-62
2021/07/11 03:11:31;;;;;;;16.20;9.85;;;16.20;99.90;;;;;;5074639;28;20024;-63
2021/07/11 03:13:59;;;;;;;14.00;9.38;;;16.20;99.90;;;;;;5071709;28;20024;-62
2021/07/11 03:16:25;;;;;;;15.45;9.45;;;16.10;99.90;;;;;;5069280;28;20481;-66
2021/07/11 03:18:54;;;;;;;13.65;9.30;;;16.10;99.90;;;;;;5071476;28;20079;-63
2021/07/11 03:21:23;;;;;;;13.75;9.15;;;16.10;99.90;;;;;;5070878;28;20032;-63
2021/07/11 03:23:52;;;;;;;15.45;9.57;;;16.10;99.90;;;;;;5071615;28;20474;-62
2021/07/11 03:26:19;;;;;;;15.63;9.65;;;16.00;99.90;;;;;;5070955;28;20031;-64
2021/07/11 03:28:50;;;;;;;20.75;10.07;;;16.00;99.90;;;;;;5071181;28;20040;-63
2021/07/11 03:31:20;;;;;;;17.60;9.80;;;16.00;99.90;;;;;;5076136;28;20037;-63
2021/07/11 03:33:52;;;;;;;15.00;9.70;;;15.90;99.90;;;;;;5077627;28;20031;-63
2021/07/11 03:36:19;;;;;;;13.70;10.30;;;15.90;99.90;;;;;;5076791;28;20055;-63
2021/07/11 03:38:57;;;;;;;14.93;10.43;;;15.90;99.90;;;;;;5086550;28;20032;-61
2021/07/11 03:41:29;;;;;;;17.58;9.43;;;15.80;99.90;;;;;;5074710;28;20379;-63
2021/07/11 03:43:57;;;;;;;15.90;9.73;;;15.80;99.90;;;;;;5081426;28;20433;-62
2021/07/11 03:46:28;;;;;;;16.85;9.68;;;15.70;99.90;;;;;;5086558;28;20032;-62
2021/07/11 03:48:58;;;;;;;13.57;8.98;;;15.60;99.90;;;;;;5074002;28;20032;-62
2021/07/11 03:51:29;;;;;;;13.65;9.10;;;15.60;99.90;;;;;;5070636;28;20051;-64
2021/07/11 03:53:57;;;;;;;17.58;9.80;;;15.60;99.90;;;;;;5082194;28;20032;-62
2021/07/11 03:56:27;;;;;;;18.77;9.85;;;15.50;99.90;;;;;;5070637;28;20029;-62
2021/07/11 03:58:56;;;;;;;16.58;9.43;;;15.50;99.90;;;;;;5080622;28;20040;-64
2021/07/11 04:01:29;;;;;;;15.10;9.52;;;15.40;99.90;;;;;;5083714;28;20032;-62
2021/07/11 04:03:56;;;;;;;20.00;9.70;;;15.40;99.90;;;;;;5072677;28;20036;-63
2021/07/11 04:06:23;;;;;;;26.27;11.07;;;15.30;99.90;;;;;;5077934;28;20021;-62
2021/07/11 04:08:53;;;;;;;23.35;9.88;;;15.30;99.90;;;;;;5076942;28;20043;-62
2021/07/11 04:11:18;;;;;;;14.50;8.85;;;15.30;99.90;;;;;;5079951;28;20063;-63
2021/07/11 04:13:44;;;;;;;13.27;9.05;;;15.20;99.90;;;;;;5077872;28;20043;-61
2021/07/11 04:16:10;;;;;;;21.08;9.20;;;15.20;99.90;;;;;;5069058;28;20037;-62
2021/07/11 04:18:43;;;;;;;14.20;9.93;;;15.20;99.90;;;;;;5072049;28;20025;-62
2021/07/11 04:21:11;;;;;;;19.30;9.50;;;15.20;99.90;;;;;;5070225;28;20394;-62
2021/07/11 04:23:38;;;;;;;15.95;9.85;;;15.20;99.90;;;;;;5070963;28;20454;-62
2021/07/11 04:26:04;;;;;;;27.50;9.68;;;15.10;99.90;;;;;;5070175;28;20034;-63
2021/07/11 04:28:33;;;;;;;15.80;9.23;;;15.10;99.90;;;;;;5070825;28;20044;-63
2021/07/11 04:31:00;;;;;;;17.02;8.95;;;15.00;99.90;;;;;;5073053;28;20024;-63
2021/07/11 04:33:28;;;;;;;18.42;9.75;;;15.00;99.90;;;;;;5070481;28;20063;-62
2021/07/11 04:35:53;;;;;;;18.27;10.15;;;14.90;99.90;;;;;;5077716;28;20031;-64
2021/07/11 04:38:19;;;;;;;21.40;10.05;;;15.00;99.90;;;;;;5084558;28;20028;-64
2021/07/11 04:40:45;;;;;;;22.30;9.63;;;14.90;99.90;;;;;;5083966;28;20466;-62
2021/07/11 04:43:14;;;;;;;20.85;10.57;;;14.80;99.90;;;;;;5081059;28;20028;-63
2021/07/11 04:45:40;;;;;;;18.88;9.90;;;14.70;99.90;;;;;;5070628;28;20039;-63
2021/07/11 04:48:06;;;;;;;21.92;9.93;;;14.70;99.90;;;;;;5070044;28;20032;-62
2021/07/11 04:50:32;;;;;;;22.90;9.65;;;14.60;99.90;;;;;;5073745;28;20035;-63
2021/07/11 04:52:58;;;;;;;27.55;9.63;;;14.60;99.90;;;;;;5069520;28;20036;-63
2021/07/11 04:55:23;;;;;;;24.63;10.45;;;14.60;99.90;;;;;;5084262;28;20149;-62
2021/07/11 04:57:49;;;;;;;25.65;10.45;;;14.50;99.90;;;;;;5072021;28;20414;-62
2021/07/11 05:00:15;;;;;;;29.90;10.18;;;14.50;99.90;;;;;;5080286;28;20044;-62
2021/07/11 05:02:41;;;;;;;27.80;9.93;;;14.50;99.90;;;;;;5074035;28;20106;-62
2021/07/11 05:05:08;;;;;;;22.75;9.77;;;14.50;99.90;;;;;;5074824;28;20475;-64
2021/07/11 05:07:35;;;;;;;27.52;10.05;;;14.50;99.90;;;;;;5083380;28;20088;-63
2021/07/11 05:10:01;;;;;;;19.50;10.45;;;14.50;99.90;;;;;;5086236;28;20032;-63
2021/07/11 05:12:26;;;;;;;23.83;10.25;;;14.50;99.90;;;;;;5075023;28;20383;-61
2021/07/11 05:14:52;;;;;;;21.85;10.50;;;14.50;99.90;;;;;;5075070;28;20094;-61
2021/07/11 05:17:18;;;;;;;19.98;9.65;;;14.50;99.90;;;;;;5077300;28;20529;-63
2021/07/11 05:19:44;;;;;;;21.67;9.40;;;14.60;99.90;;;;;;5079119;28;20429;-63
2021/07/11 05:22:09;;;;;;;28.92;10.77;;;14.60;99.90;;;;;;5073053;28;20042;-63
2021/07/11 05:24:36;;;;;;;26.42;10.75;;;14.60;99.90;;;;;;5073902;28;20024;-62
2021/07/11 05:27:02;;;;;;;20.13;10.77;;;14.60;99.90;;;;;;5086252;28;20029;-64
2021/07/11 05:29:27;;;;;;;41.75;11.95;;;14.70;99.90;;;;;;5077821;28;20046;-62
2021/07/11 05:31:53;;;;;;;30.65;11.18;;;14.80;99.90;;;;;;5073024;28;20103;-63
2021/07/11 05:34:19;;;;;;;30.15;11.88;;;14.90;99.90;;;;;;5073741;28;20032;-63
2021/07/11 05:36:45;;;;;;;27.67;11.50;;;14.90;99.90;;;;;;5072888;28;20059;-65
2021/07/11 05:39:10;;;;;;;19.27;11.63;;;15.00;99.90;;;;;;5087710;28;20028;-63
2021/07/11 05:41:36;;;;;;;30.10;12.05;;;15.10;99.90;;;;;;5078289;28;20032;-65
2021/07/11 05:44:03;;;;;;;25.83;12.52;;;15.10;99.90;;;;;;5082914;28;20033;-63
2021/07/11 05:46:29;;;;;;;31.45;11.43;;;15.20;99.90;;;;;;5078843;28;20124;-62
2021/07/11 05:48:54;;;;;;;24.92;11.90;;;15.30;99.90;;;;;;5084836;28;20487;-63
2021/07/11 05:51:20;;;;;;;20.17;11.35;;;15.30;99.90;;;;;;5081857;28;20074;-61
2021/07/11 05:53:46;;;;;;;22.05;10.85;;;15.50;99.90;;;;;;5076596;28;20360;-62
2021/07/11 05:56:12;;;;;;;27.70;10.27;;;15.60;99.90;;;;;;5073607;28;20632;-63
2021/07/11 05:58:38;;;;;;;22.48;9.98;;;15.70;99.90;;;;;;5072432;28;20032;-62
2021/07/11 06:01:04;;;;;;;19.70;10.60;;;15.90;99.90;;;;;;5076224;28;20043;-62
2021/07/11 06:03:30;;;;;;;18.10;9.90;;;15.90;99.90;;;;;;5085611;28;20108;-62
2021/07/11 06:05:55;;;;;;;15.85;9.48;;;15.90;99.90;;;;;;5078437;28;20115;-63
2021/07/11 06:08:21;;;;;;;19.02;9.40;;;16.00;99.90;;;;;;5081605;28;20114;-62
2021/07/11 06:10:47;;;;;;;18.85;10.13;;;16.00;99.90;;;;;;5072691;28;20082;-64
2021/07/11 06:13:13;;;;;;;13.52;8.38;;;16.10;99.90;;;;;;5077303;28;20446;-63
2021/07/11 06:15:38;;;;;;;19.70;8.65;;;16.30;99.90;;;;;;5083182;28;20060;-64
2021/07/11 06:18:04;;;;;;;12.32;7.45;;;16.40;99.90;;;;;;5086167;28;20032;-64
2021/07/11 06:20:33;;;;;;;19.45;7.72;;;16.40;99.90;;;;;;5072461;28;20134;-63
2021/07/11 06:22:59;;;;;;;8.93;5.55;;;16.50;99.90;;;;;;5081797;28;20028;-63
2021/07/11 06:25:25;;;;;;;13.18;6.80;;;16.50;99.90;;;;;;5084330;28;20031;-61
2021/07/11 06:27:50;;;;;;;11.32;6.47;;;16.60;99.90;;;;;;5075467;28;20032;-63
2021/07/11 06:30:18;;;;;;;29.83;7.00;;;16.70;99.90;;;;;;5077100;28;20071;-64
2021/07/11 06:32:47;;;;;;;15.05;9.32;;;16.70;99.90;;;;;;5091295;28;20039;-62
2021/07/11 06:35:18;;;;;;;20.65;8.80;;;16.80;99.90;;;;;;5086502;28;20037;-64
2021/07/11 06:37:45;;;;;;;11.13;7.68;;;16.90;99.90;;;;;;5082860;28;20020;-63
2021/07/11 06:40:13;;;;;;;13.57;7.60;;;17.00;99.90;;;;;;5075122;28;20060;-64
2021/07/11 06:42:39;;;;;;;11.05;6.63;;;17.00;99.90;;;;;;5072605;28;20066;-63
2021/07/11 06:45:07;;;;;;;10.77;7.18;;;17.10;99.90;;;;;;5074298;28;20079;-63
2021/07/11 06:47:32;;;;;;;17.92;7.60;;;17.50;99.90;;;;;;5071328;28;20135;-63
2021/07/11 06:49:58;;;;;;;7.45;3.63;;;17.90;99.90;;;;;;5073671;28;20107;-63
2021/07/11 06:52:24;;;;;;;10.63;4.50;;;18.00;99.90;;;;;;5077645;28;20035;-64
2021/07/11 06:54:51;;;;;;;5.82;4.30;;;17.90;99.90;;;;;;5078529;28;20032;-63
2021/07/11 06:57:20;;;;;;;15.05;5.00;;;18.00;99.90;;;;;;5078821;28;20030;-62
2021/07/11 06:59:46;;;;;;;9.18;3.95;;;18.00;99.90;;;;;;5085491;28;20044;-63
2021/07/11 07:02:12;;;;;;;7.78;3.00;;;18.00;99.90;;;;;;5075176;28;20819;-62
2021/07/11 07:04:37;;;;;;;4.18;2.80;;;18.30;99.90;;;;;;5076450;28;20126;-64
2021/07/11 07:07:04;;;;;;;4.47;3.03;;;18.50;99.90;;;;;;5080333;28;20063;-63
2021/07/11 07:09:29;;;;;;;5.57;2.30;;;18.70;99.90;;;;;;5073065;28;20074;-63
2021/07/11 07:11:55;;;;;;;2.10;1.90;;;18.70;99.90;;;;;;5074644;28;20711;-62
2021/07/11 07:14:21;;;;;;;3.33;1.90;;;18.60;99.90;;;;;;5073569;28;20445;-64
2021/07/11 07:16:47;;;;;;;5.22;2.13;;;18.70;99.90;;;;;;5071515;28;20381;-64
2021/07/11 07:19:12;;;;;;;5.15;1.70;;;19.00;99.90;;;;;;5070766;28;20029;-63
2021/07/11 07:21:38;;;;;;;6.13;1.80;;;19.40;99.90;;;;;;5072436;28;20553;-63
2021/07/11 07:24:04;;;;;;;2.72;2.00;;;19.60;99.90;;;;;;5081906;28;20040;-62
2021/07/11 07:26:30;;;;;;;3.63;2.00;;;19.70;99.90;;;;;;5075918;28;20103;-64
2021/07/11 07:28:56;;;;;;;3.60;2.00;;;20.00;99.90;;;;;;5069628;28;20079;-63
2021/07/11 07:31:21;;;;;;;3.40;2.05;;;20.30;99.90;;;;;;5078534;28;20089;-64
2021/07/11 07:33:47;;;;;;;9.45;2.60;;;20.40;99.90;;;;;;5072712;28;20025;-65
2021/07/11 07:36:13;;;;;;;9.43;3.58;;;20.60;99.90;;;;;;5081338;28;20038;-62
2021/07/11 07:38:38;;;;;;;5.55;2.55;;;21.10;99.90;;;;;;5089201;28;20466;-64
2021/07/11 07:41:05;;;;;;;5.15;3.08;;;21.30;99.90;;;;;;5079680;28;20035;-63
2021/07/11 07:43:30;;;;;;;6.13;3.38;;;21.40;99.90;;;;;;5084261;28;20459;-63
2021/07/11 07:45:57;;;;;;;9.63;3.45;;;21.40;99.90;;;;;;5078154;28;20072;-64
2021/07/11 07:48:22;;;;;;;5.25;2.65;;;21.60;99.90;;;;;;5070700;28;20043;-62
2021/07/11 07:50:48;;;;;;;3.70;2.47;;;21.60;99.90;;;;;;5074545;28;20020;-63
2021/07/11 07:53:14;;;;;;;6.10;2.55;;;21.70;99.90;;;;;;5074668;28;20159;-65
2021/07/11 07:55:39;;;;;;;5.25;2.65;;;22.00;99.90;;;;;;5070913;28;20025;-63
2021/07/11 07:58:05;;;;;;;7.07;3.08;;;22.10;99.90;;;;;;5075636;28;20039;-63
2021/07/11 08:00:31;;;;;;;4.43;2.55;;;22.30;99.90;;;;;;5076187;28;20024;-64
2021/07/11 08:02:58;;;;;;;4.70;2.45;;;22.50;99.90;;;;;;5084475;28;20057;-63
2021/07/11 08:05:23;;;;;;;6.68;3.58;;;22.70;99.90;;;;;;5071351;28;20035;-61
2021/07/11 08:07:49;;;;;;;7.75;3.58;;;23.00;99.90;;;;;;5086262;28;20032;-61
2021/07/11 08:10:15;;;;;;;5.45;2.85;;;23.30;99.90;;;;;;5072287;28;20077;-62
2021/07/11 08:12:42;;;;;;;5.97;3.83;;;23.20;99.90;;;;;;5081094;28;20489;-61
2021/07/11 08:15:10;;;;;;;8.45;3.10;;;23.10;99.90;;;;;;5082033;28;20539;-62
2021/07/11 08:17:36;;;;;;;9.10;3.28;;;23.40;99.90;;;;;;5085606;28;20046;-62
2021/07/11 08:20:05;;;;;;;4.40;2.90;;;23.40;99.90;;;;;;5076137;28;20033;-63
2021/07/11 08:22:31;;;;;;;3.70;2.90;;;24.10;99.90;;;;;;5076131;28;20043;-62
2021/07/11 08:24:56;;;;;;;6.40;3.10;;;24.50;99.90;;;;;;5074409;28;20028;-61
2021/07/11 08:27:24;;;;;;;7.20;3.00;;;24.50;99.90;;;;;;5075263;28;20030;-62
2021/07/11 08:29:51;;;;;;;7.75;3.92;;;24.00;99.90;;;;;;5070407;28;20055;-63
2021/07/11 08:32:18;;;;;;;6.80;3.83;;;23.90;99.90;;;;;;5076906;28;20109;-61
2021/07/11 08:34:43;;;;;;;4.32;3.40;;;23.90;99.90;;;;;;5076185;28;20029;-62
2021/07/11 08:37:09;;;;;;;4.57;3.00;;;23.80;99.90;;;;;;5088682;28;20048;-61
2021/07/11 08:39:35;;;;;;;5.55;3.50;;;24.40;99.90;;;;;;5081961;28;20110;-62
2021/07/11 08:42:01;;;;;;;5.97;3.17;;;24.80;99.90;;;;;;5075964;28;20100;-62
2021/07/11 08:44:26;;;;;;;11.25;4.78;;;25.00;99.90;;;;;;5075334;28;20056;-62
2021/07/11 08:46:53;;;;;;;4.93;3.85;;;24.40;99.90;;;;;;5080940;28;20024;-61
2021/07/11 08:49:23;;;;;;;5.30;3.72;;;23.80;99.90;;;;;;5073710;28;20071;-61
2021/07/11 08:51:55;;;;;;;5.88;3.75;;;23.60;99.90;;;;;;5081912;28;20432;-61
2021/07/11 08:54:20;;;;;;;5.25;3.40;;;23.40;99.90;;;;;;5074162;28;20032;-62
2021/07/11 08:56:46;;;;;;;25.77;4.65;;;23.30;99.90;;;;;;5087845;28;20446;-60
2021/07/11 08:59:12;;;;;;;5.63;3.75;;;23.00;99.90;;;;;;5083267;28;20733;-61
2021/07/11 09:01:37;;;;;;;6.13;3.58;;;22.70;99.90;;;;;;5081186;28;20490;-60
2021/07/11 09:04:11;;;;;;;6.32;3.90;;;22.40;99.90;;;;;;5072533;28;20147;-61
2021/07/11 09:06:45;;;;;;;8.55;4.35;;;22.30;99.90;;;;;;5074476;28;20059;-63
2021/07/11 09:09:20;;;;;;;6.80;3.78;;;22.20;99.90;;;;;;5074940;28;20364;-60
2021/07/11 09:11:51;;;;;;;5.68;4.25;;;22.00;99.90;;;;;;5075257;28;20386;-62
2021/07/11 09:14:23;;;;;;;6.25;3.83;;;21.80;99.90;;;;;;5074640;28;20029;-62
2021/07/11 09:16:49;;;;;;;8.00;3.75;;;21.80;99.90;;;;;;5074394;28;20413;-62
2021/07/11 09:19:48;;;;;;;4.82;3.22;;;21.80;99.90;;;;;;5076409;28;20024;-61
2021/07/11 09:22:16;;;;;;;7.07;3.47;;;21.80;99.90;;;;;;5070304;28;20486;-62
2021/07/11 09:24:56;;;;;;;4.90;3.17;;;21.80;99.90;;;;;;5072370;28;20028;-61
2021/07/11 09:27:24;;;;;;;4.47;3.55;;;21.80;99.90;;;;;;5081211;28;20057;-63
2021/07/11 09:29:51;;;;;;;5.05;3.42;;;22.10;99.90;;;;;;5088825;28;20040;-62
2021/07/11 09:32:30;;;;;;;10.63;3.90;;;22.20;99.90;;;;;;5075084;28;20024;-62
2021/07/11 09:35:18;;;;;;;7.07;3.60;;;22.20;99.90;;;;;;5072916;28;20512;-63
2021/07/11 09:37:48;;;;;;;6.65;3.50;;;22.20;99.90;;;;;;5084063;28;20483;-64
2021/07/11 09:40:20;;;;;;;4.18;2.95;;;22.10;99.90;;;;;;5088823;28;20036;-62
2021/07/11 09:42:48;;;;;;;6.32;3.92;;;22.00;99.90;;;;;;5087059;28;20074;-61
2021/07/11 09:45:23;;;;;;;6.72;3.25;;;21.90;99.90;;;;;;5070065;28;20398;-64
2021/07/11 09:47:56;;;;;;;6.43;3.40;;;21.90;99.90;;;;;;5073823;28;20475;-63
2021/07/11 09:50:24;;;;;;;4.78;3.35;;;22.20;99.90;;;;;;5072944;28;20040;-61
2021/07/11 09:52:55;;;;;;;6.38;3.58;;;22.30;99.90;;;;;;5080399;28;20431;-61
2021/07/11 09:55:29;;;;;;;5.38;3.60;;;22.30;99.90;;;;;;5085345;28;20021;-61
2021/07/11 09:58:00;;;;;;;7.57;3.53;;;22.10;99.90;;;;;;5073373;28;20094;-63
2021/07/11 10:00:32;;;;;;;7.63;3.60;;;22.00;99.90;;;;;;5086616;28;20059;-61
2021/07/11 10:03:05;;;;;;;5.82;3.20;;;22.10;99.90;;;;;;5074626;28;20044;-62
2021/07/11 10:05:32;;;;;;;12.63;4.63;;;22.10;99.90;;;;;;5072320;28;20032;-62
2021/07/11 10:07:59;;;;;;;7.32;4.22;;;22.10;99.90;;;;;;5079856;28;20060;-62
2021/07/11 10:10:28;;;;;;;6.55;3.55;;;22.00;99.90;;;;;;5072192;28;20492;-62
2021/07/11 10:12:54;;;;;;;5.90;3.72;;;21.70;99.90;;;;;;5072697;28;20112;-61
2021/07/11 10:15:23;;;;;;;5.88;3.60;;;21.70;99.90;;;;;;5070679;28;20033;-63
2021/07/11 10:17:57;;;;;;;6.50;3.95;;;21.70;99.90;;;;;;5076017;28;20089;-62
2021/07/11 10:20:38;;;;;;;4.78;3.30;;;21.90;99.90;;;;;;5077447;28;20032;-62
2021/07/11 10:23:05;;;;;;;4.90;3.28;;;21.90;99.90;;;;;;5072651;28;20086;-62
2021/07/11 10:25:32;;;;;;;6.63;3.38;;;21.80;99.90;;;;;;5071771;28;20040;-62
2021/07/11 10:28:11;;;;;;;4.55;2.78;;;21.70;99.90;;;;;;5080711;28;20028;-62
2021/07/11 10:30:39;;;;;;;5.75;3.50;;;21.70;99.90;;;;;;5071856;28;20090;-62
2021/07/11 10:33:14;;;;;;;3.83;3.13;;;21.70;99.90;;;;;;5072427;28;20036;-63
2021/07/11 10:36:00;;;;;;;7.18;3.45;;;21.70;99.90;;;;;;5071218;28;20025;-61
2021/07/11 10:38:55;;;;;;;5.78;3.25;;;21.70;99.90;;;;;;5073794;28;20040;-61
2021/07/11 10:41:28;;;;;;;6.53;3.42;;;21.80;99.90;;;;;;5065430;28;20464;-62
2021/07/11 10:44:08;;;;;;;3.88;2.90;;;21.90;99.90;;;;;;5076555;28;20036;-62
2021/07/11 10:46:43;;;;;;;5.55;3.20;;;21.90;99.90;;;;;;5087994;28;20032;-62
2021/07/11 10:49:13;;;;;;;9.88;4.05;;;22.10;99.90;;;;;;5070082;28;20389;-61
2021/07/11 10:51:53;;;;;;;4.35;3.45;;;22.10;99.90;;;;;;5078351;28;20039;-61
2021/07/11 10:54:23;;;;;;;3.95;3.30;;;22.20;99.90;;;;;;5069701;28;20039;-61
2021/07/11 10:56:49;;;;;;;8.38;3.65;;;22.10;99.90;;;;;;5079595;28;20092;-61
2021/07/11 10:59:25;;;;;;;9.10;5.75;;;22.00;99.90;;;;;;5073947;28;20039;-60
2021/07/11 11:01:50;;;;;;;7.40;4.47;;;21.90;99.90;;;;;;5070654;28;20040;-61
2021/07/11 11:04:17;;;;;;;13.05;4.32;;;21.90;99.90;;;;;;5070044;28;20036;-60
2021/07/11 11:06:42;;;;;;;6.10;3.70;;;21.90;99.90;;;;;;5074703;28;20078;-61
2021/07/11 11:09:08;;;;;;;7.07;4.05;;;21.90;99.90;;;;;;5070627;28;20032;-60
2021/07/11 11:11:34;;;;;;;5.97;3.60;;;21.80;99.90;;;;;;5090415;28;20032;-61
2021/07/11 11:14:04;;;;;;;6.28;3.38;;;21.90;99.90;;;;;;5080055;28;20013;-61
2021/07/11 11:16:45;;;;;;;5.22;3.33;;;21.80;99.90;;;;;;5084277;28;20382;-62
2021/07/11 11:19:15;;;;;;;6.20;3.58;;;21.80;99.90;;;;;;5079648;28;20076;-61
2021/07/11 11:21:41;;;;;;;10.60;4.00;;;21.80;99.90;;;;;;5071524;28;20028;-60
2021/07/11 11:24:07;;;;;;;7.78;3.85;;;21.70;99.90;;;;;;5071599;28;20098;-62
2021/07/11 11:26:33;;;;;;;4.18;3.33;;;21.80;99.90;;;;;;5072487;28;20467;-61
2021/07/11 11:29:00;;;;;;;4.70;3.53;;;21.70;99.90;;;;;;5087262;28;20506;-61
2021/07/11 11:31:31;;;;;;;7.60;3.97;;;21.70;99.90;;;;;;5077640;28;20358;-60
2021/07/11 11:33:57;;;;;;;5.18;3.22;;;21.60;99.90;;;;;;5073698;28;20056;-60
2021/07/11 11:36:24;;;;;;;11.02;4.50;;;21.60;99.90;;;;;;5080045;28;20079;-60
2021/07/11 11:38:51;;;;;;;6.85;4.57;;;21.40;99.90;;;;;;5075563;28;20036;-61
2021/07/11 11:41:19;;;;;;;5.28;3.58;;;21.30;99.90;;;;;;5077264;28;20044;-61
2021/07/11 11:43:48;;;;;;;6.90;3.83;;;21.10;99.90;;;;;;5073746;28;20035;-61
2021/07/11 11:46:25;;;;;;;8.45;4.32;;;21.20;99.90;;;;;;5069892;28;20074;-60
2021/07/11 11:49:12;;;;;;;22.15;5.55;;;21.30;99.90;;;;;;5071296;28;20070;-60
2021/07/11 11:51:53;;;;;;;7.28;4.60;;;21.40;99.90;;;;;;5084081;28;20020;-61
2021/07/11 11:54:41;;;;;;;7.10;3.78;;;21.40;99.90;;;;;;5073211;28;20021;-61
2021/07/11 11:57:08;;;;;;;5.53;3.85;;;21.40;99.90;;;;;;5071356;28;20119;-62
2021/07/11 11:59:35;;;;;;;12.43;4.60;;;21.30;99.90;;;;;;5069921;28;20063;-61
2021/07/11 12:02:03;;;;;;;6.28;4.97;;;21.10;99.90;;;;;;5076619;28;20426;-61
2021/07/11 12:04:30;;;;;;;10.38;4.78;;;21.20;99.90;;;;;;5084172;28;20077;-62
2021/07/11 12:06:58;;;;;;;11.73;5.43;;;21.10;99.90;;;;;;5076946;28;20039;-62
2021/07/11 12:09:26;;;;;;;22.95;11.40;;;21.10;99.90;;;;;;5071666;28;20027;-62
2021/07/11 12:11:59;;;;;;;13.43;7.65;;;21.10;99.90;;;;;;5073928;28;20082;-60
2021/07/11 12:14:26;;;;;;;9.57;5.30;;;21.00;99.90;;;;;;5081568;28;20028;-61
2021/07/11 12:16:59;;;;;;;13.55;6.00;;;21.00;99.90;;;;;;5072487;28;20054;-61
2021/07/11 12:19:25;;;;;;;10.00;4.80;;;20.90;99.90;;;;;;5074413;28;20033;-61
2021/07/11 12:21:53;;;;;;;11.52;5.10;;;20.90;99.90;;;;;;5073017;28;20033;-60
2021/07/11 12:24:24;;;;;;;9.40;4.95;;;20.90;99.90;;;;;;5077643;28;20493;-61
2021/07/11 12:26:54;;;;;;;6.40;4.70;;;20.90;99.90;;;;;;5070636;28;20024;-60
2021/07/11 12:29:29;;;;;;;8.02;4.85;;;20.90;99.90;;;;;;5084994;28;20398;-61
2021/07/11 12:32:05;;;;;;;6.78;5.00;;;20.80;99.90;;;;;;5075556;28;20020;-61
2021/07/11 12:34:32;;;;;;;7.38;5.45;;;20.70;99.90;;;;;;5076899;28;20039;-59
2021/07/11 12:37:00;;;;;;;8.65;5.43;;;20.90;99.90;;;;;;5089685;28;20478;-61
2021/07/11 12:39:27;;;;;;;10.20;5.85;;;21.20;99.90;;;;;;5073695;28;20462;-60
2021/07/11 12:41:54;;;;;;;10.70;7.03;;;21.50;99.90;;;;;;5076698;28;20080;-61
2021/07/11 12:44:37;;;;;;;9.57;6.65;;;21.40;99.90;;;;;;5074848;28;20028;-61
2021/07/11 12:47:05;;;;;;;12.60;6.43;;;21.50;99.90;;;;;;5070561;28;20040;-60